Time;durP1;ratioP1;P1;durP2;ratioP2;P2;SDS_P1;SDS_P2;PMS_P1;PMS_P2;Temp;Humidity;BMP_temperature;BMP_pressure;BME280_temperature;BME280_humidity;BME280_pressure;Samples;Min_cycle;Max_cycle;Signal;HPM_P1;HPM_P2
2024/01/24 04:02:20;;;;;;;25.88;3.00;;;11.10;99.90;;;;;;6239517;22;20027;-84
2024/01/24 04:04:46;;;;;;;15.80;2.67;;;11.10;99.90;;;;;;6246702;23;20008;-82
2024/01/24 04:07:11;;;;;;;26.35;3.50;;;11.10;99.90;;;;;;6247206;23;20304;-81
2024/01/24 04:09:37;;;;;;;19.00;3.42;;;11.10;99.90;;;;;;6246899;23;20408;-82
2024/01/24 04:12:03;;;;;;;21.48;3.78;;;11.10;99.90;;;;;;6246325;23;20008;-83
2024/01/24 04:14:29;;;;;;;25.15;5.13;;;11.10;99.90;;;;;;6219484;23;20012;-83
2024/01/24 04:16:55;;;;;;;27.92;3.53;;;11.10;99.90;;;;;;6246704;23;20015;-82
2024/01/24 04:19:20;;;;;;;24.15;3.60;;;11.10;99.90;;;;;;6246187;23;20016;-81
2024/01/24 04:21:46;;;;;;;19.65;3.83;;;11.20;99.90;;;;;;6219713;23;20052;-84
2024/01/24 04:24:11;;;;;;;25.67;4.10;;;11.10;99.90;;;;;;6219933;23;20016;-83
2024/01/24 04:26:38;;;;;;;23.75;3.13;;;11.10;99.90;;;;;;6220284;23;20015;-82
2024/01/24 04:29:03;;;;;;;20.08;3.67;;;11.10;99.90;;;;;;6219865;23;20020;-83
2024/01/24 04:31:29;;;;;;;19.17;2.88;;;11.10;99.90;;;;;;6247183;22;20008;-80
2024/01/24 04:33:55;;;;;;;21.52;3.72;;;11.10;99.90;;;;;;6247694;23;20295;-81
2024/01/24 04:36:20;;;;;;;15.13;3.45;;;11.10;99.90;;;;;;6195184;23;20008;-82
2024/01/24 04:38:46;;;;;;;20.05;3.72;;;11.10;99.90;;;;;;6219537;23;20012;-82
2024/01/24 04:41:12;;;;;;;21.85;4.00;;;11.10;99.90;;;;;;6219635;23;20402;-81
2024/01/24 04:43:38;;;;;;;16.00;3.20;;;11.10;99.90;;;;;;6194561;23;20016;-79
2024/01/24 04:46:11;;;;;;;21.80;3.53;;;11.00;99.90;;;;;;6194278;23;20453;-82
2024/01/24 04:48:38;;;;;;;23.63;4.50;;;11.10;99.90;;;;;;6246470;23;20027;-82
2024/01/24 04:51:03;;;;;;;20.98;3.10;;;11.00;99.90;;;;;;6245608;22;20016;-83
2024/01/24 04:53:29;;;;;;;21.10;4.10;;;11.00;99.90;;;;;;6246522;23;20057;-83
2024/01/24 04:55:55;;;;;;;24.23;3.38;;;11.00;99.90;;;;;;6246470;23;20054;-81
2024/01/24 04:58:20;;;;;;;19.63;4.40;;;11.00;99.90;;;;;;6246415;23;20353;-83
2024/01/24 05:00:47;;;;;;;21.65;3.50;;;11.00;99.90;;;;;;6246081;22;20012;-82
2024/01/24 05:03:14;;;;;;;30.77;5.55;;;10.90;99.90;;;;;;6246613;23;20019;-82
2024/01/24 05:05:40;;;;;;;26.00;5.22;;;10.90;99.90;;;;;;6246344;23;20055;-83
2024/01/24 05:08:06;;;;;;;29.73;5.72;;;10.90;99.90;;;;;;6219340;23;20008;-82
2024/01/24 05:10:32;;;;;;;26.38;4.13;;;10.80;99.90;;;;;;6246595;22;20008;-80
2024/01/24 05:12:58;;;;;;;25.55;4.95;;;10.80;99.90;;;;;;6246436;23;20019;-84
2024/01/24 05:15:24;;;;;;;31.25;5.50;;;10.70;99.90;;;;;;6246439;23;20070;-84
2024/01/24 05:17:49;;;;;;;34.25;5.07;;;10.60;99.90;;;;;;6246020;23;20008;-81
2024/01/24 05:20:17;;;;;;;20.13;3.45;;;10.60;99.90;;;;;;6219260;22;20391;-83
2024/01/24 05:22:43;;;;;;;25.73;5.00;;;10.50;99.90;;;;;;6246111;23;20453;-83
2024/01/24 05:25:09;;;;;;;27.10;5.15;;;10.50;99.90;;;;;;6247029;23;20016;-82
2024/01/24 05:27:35;;;;;;;25.63;4.85;;;10.40;99.90;;;;;;6219182;23;20019;-83
2024/01/24 05:30:01;;;;;;;29.88;5.38;;;10.40;99.90;;;;;;6246991;23;20012;-82
2024/01/24 05:32:27;;;;;;;32.13;4.10;;;10.30;99.90;;;;;;6219631;23;20099;-83
2024/01/24 05:34:52;;;;;;;37.50;6.43;;;10.30;99.90;;;;;;6246117;23;20488;-83
2024/01/24 05:37:18;;;;;;;30.63;4.13;;;10.30;99.90;;;;;;6245752;23;20016;-82
2024/01/24 05:39:44;;;;;;;24.73;3.88;;;10.30;99.90;;;;;;6247543;23;20023;-82
2024/01/24 05:42:10;;;;;;;32.28;5.78;;;10.20;99.90;;;;;;6247701;22;20012;-83
2024/01/24 05:44:36;;;;;;;32.03;5.13;;;10.30;99.90;;;;;;6247646;23;20012;-83
2024/01/24 05:47:02;;;;;;;33.72;5.65;;;10.30;99.90;;;;;;6247954;23;20394;-82
2024/01/24 05:49:28;;;;;;;48.63;7.25;;;10.30;99.90;;;;;;6248167;23;20048;-82
2024/01/24 05:51:53;;;;;;;32.50;5.32;;;10.20;99.90;;;;;;6220735;23;20016;-82
2024/01/24 05:54:19;;;;;;;17.45;3.33;;;10.20;99.90;;;;;;6248215;23;20018;-81
2024/01/24 05:56:45;;;;;;;29.08;4.40;;;10.20;99.90;;;;;;6221165;23;20016;-83
2024/01/24 05:59:11;;;;;;;38.38;6.10;;;10.20;99.90;;;;;;6247669;23;20322;-83
2024/01/24 06:01:36;;;;;;;41.13;6.35;;;10.10;99.90;;;;;;6247571;22;20022;-83
2024/01/24 06:04:02;;;;;;;26.17;4.28;;;10.10;99.90;;;;;;6248326;23;20020;-83
2024/01/24 06:06:28;;;;;;;31.60;6.10;;;10.10;99.90;;;;;;6247961;23;20058;-83
2024/01/24 06:08:53;;;;;;;23.83;5.32;;;10.10;99.90;;;;;;6196693;23;20479;-83
2024/01/24 06:11:19;;;;;;;36.78;5.63;;;10.10;99.90;;;;;;6247931;22;20008;-81
2024/01/24 06:13:45;;;;;;;36.03;5.47;;;10.20;99.90;;;;;;6248336;23;20418;-83
2024/01/24 06:16:10;;;;;;;34.60;5.13;;;10.20;99.90;;;;;;6220803;23;20080;-84
2024/01/24 06:18:36;;;;;;;31.58;5.78;;;10.30;99.90;;;;;;6248010;23;20495;-83
2024/01/24 06:21:02;;;;;;;31.13;5.32;;;10.20;99.90;;;;;;6247917;22;20012;-84
2024/01/24 06:23:28;;;;;;;37.75;6.43;;;10.30;99.90;;;;;;6220628;23;20021;-81
2024/01/24 06:25:53;;;;;;;36.83;5.43;;;10.40;99.90;;;;;;6220731;23;20020;-82
2024/01/24 06:28:19;;;;;;;32.83;6.43;;;10.40;99.90;;;;;;6247676;23;20011;-82
2024/01/24 06:30:45;;;;;;;29.98;5.47;;;10.50;99.90;;;;;;6247737;22;20008;-82
2024/01/24 06:33:12;;;;;;;32.30;5.10;;;10.50;99.90;;;;;;6247864;23;20342;-82
2024/01/24 06:35:37;;;;;;;28.20;5.38;;;10.50;99.90;;;;;;6220661;23;20042;-81
2024/01/24 06:38:03;;;;;;;39.65;4.90;;;10.50;99.90;;;;;;6247652;23;20012;-81
2024/01/24 06:40:29;;;;;;;34.03;5.35;;;10.50;99.90;;;;;;6220833;22;20031;-83
2024/01/24 06:42:55;;;;;;;27.42;5.00;;;10.50;99.90;;;;;;6220515;23;20016;-81
2024/01/24 06:45:21;;;;;;;32.08;4.95;;;10.50;99.90;;;;;;6247645;23;20365;-82
2024/01/24 06:47:47;;;;;;;33.78;5.40;;;10.50;99.90;;;;;;6220303;23;20051;-83
2024/01/24 06:50:13;;;;;;;34.47;5.68;;;10.50;99.90;;;;;;6220171;22;20400;-83
2024/01/24 06:52:43;;;;;;;33.10;5.75;;;10.60;99.90;;;;;;6247840;23;20051;-84
2024/01/24 06:55:09;;;;;;;40.60;6.47;;;10.50;99.90;;;;;;6247784;23;20039;-82
2024/01/24 06:57:35;;;;;;;31.60;6.38;;;10.50;99.90;;;;;;6220601;23;20019;-82
2024/01/24 07:00:04;;;;;;;35.65;6.38;;;10.50;99.90;;;;;;6220326;23;20350;-82
2024/01/24 07:02:30;;;;;;;27.50;5.05;;;10.50;99.90;;;;;;6247118;22;20488;-83
2024/01/24 07:04:55;;;;;;;40.63;6.90;;;10.40;99.90;;;;;;6220355;23;20020;-83
2024/01/24 07:07:21;;;;;;;32.38;6.47;;;10.40;99.90;;;;;;6247624;23;20015;-83
2024/01/24 07:09:47;;;;;;;39.40;8.38;;;10.30;99.90;;;;;;6247462;23;20334;-82
2024/01/24 07:12:13;;;;;;;35.67;6.32;;;10.30;99.90;;;;;;6220142;23;20095;-82
2024/01/24 07:14:39;;;;;;;37.35;5.97;;;10.10;99.90;;;;;;6220296;23;20062;-83
2024/01/24 07:17:05;;;;;;;45.28;6.10;;;10.10;99.90;;;;;;6247069;23;20023;-83
2024/01/24 07:19:31;;;;;;;33.53;5.43;;;10.10;99.90;;;;;;6246812;23;20012;-83
2024/01/24 07:21:56;;;;;;;43.78;7.30;;;10.00;99.90;;;;;;6246677;22;20079;-82
2024/01/24 07:24:22;;;;;;;30.13;5.72;;;10.10;99.90;;;;;;6219862;23;20101;-83
2024/01/24 07:26:47;;;;;;;33.35;5.70;;;10.10;99.90;;;;;;6247093;23;20377;-82
2024/01/24 07:29:14;;;;;;;38.35;7.00;;;10.00;99.90;;;;;;6219642;23;20082;-82
2024/01/24 07:31:40;;;;;;;38.70;5.78;;;10.00;99.90;;;;;;6247107;22;20004;-82
2024/01/24 07:34:06;;;;;;;39.85;5.95;;;10.00;99.90;;;;;;6247428;23;20417;-83
2024/01/24 07:36:32;;;;;;;43.95;6.28;;;10.00;99.90;;;;;;6219973;23;20047;-81
2024/01/24 07:38:58;;;;;;;38.17;6.13;;;10.00;99.90;;;;;;6219968;23;20012;-82
2024/01/24 07:41:23;;;;;;;48.05;7.93;;;10.00;99.90;;;;;;6219672;23;20016;-83
2024/01/24 07:43:49;;;;;;;37.40;6.72;;;9.90;99.90;;;;;;6247143;23;20334;-82
2024/01/24 07:46:15;;;;;;;30.42;4.70;;;9.90;99.90;;;;;;6247209;23;20062;-83
2024/01/24 07:48:42;;;;;;;27.80;5.68;;;9.90;99.90;;;;;;6247017;23;20012;-83
2024/01/24 07:51:08;;;;;;;31.50;6.25;;;9.90;99.90;;;;;;6246850;22;20030;-82
2024/01/24 07:53:33;;;;;;;35.97;5.68;;;10.00;99.90;;;;;;6246896;23;20461;-82
2024/01/24 07:55:59;;;;;;;38.08;5.80;;;10.00;99.90;;;;;;6246675;23;20019;-81
2024/01/24 07:58:26;;;;;;;27.48;5.82;;;10.00;99.90;;;;;;6219611;23;20012;-82
2024/01/24 08:00:51;;;;;;;30.45;5.78;;;10.00;99.90;;;;;;6227901;22;20007;-82
2024/01/24 08:03:17;;;;;;;37.70;5.75;;;10.00;99.90;;;;;;6277429;22;20004;-82
2024/01/24 08:05:43;;;;;;;31.02;4.85;;;10.00;99.90;;;;;;6277329;22;20441;-83
2024/01/24 08:08:08;;;;;;;30.40;5.40;;;10.00;99.90;;;;;;6275602;22;20318;-83
2024/01/24 08:10:34;;;;;;;38.60;7.68;;;10.00;99.90;;;;;;6277349;22;20022;-80
2024/01/24 08:13:00;;;;;;;34.72;6.40;;;10.00;99.90;;;;;;6275545;22;20011;-82
2024/01/24 08:15:26;;;;;;;30.85;5.68;;;9.90;99.90;;;;;;6275418;22;20030;-83
2024/01/24 08:17:51;;;;;;;34.25;5.22;;;9.90;99.90;;;;;;6275404;22;20011;-82
2024/01/24 08:20:19;;;;;;;38.50;7.55;;;9.90;99.90;;;;;;6277283;22;20069;-83
2024/01/24 08:22:45;;;;;;;37.65;7.45;;;9.90;99.90;;;;;;6275410;22;20016;-81
2024/01/24 08:25:11;;;;;;;30.73;5.97;;;10.00;99.90;;;;;;6277173;22;20061;-80
2024/01/24 08:27:36;;;;;;;29.55;4.80;;;9.90;99.90;;;;;;6277122;22;20061;-82
2024/01/24 08:30:02;;;;;;;23.23;4.45;;;9.80;99.90;;;;;;6275541;22;20384;-82
2024/01/24 08:32:28;;;;;;;45.83;8.02;;;9.80;99.90;;;;;;6277193;22;20376;-83
2024/01/24 08:34:54;;;;;;;35.70;6.13;;;9.80;99.90;;;;;;6275405;22;20015;-83
2024/01/24 08:37:20;;;;;;;50.38;6.88;;;9.80;99.90;;;;;;6277409;22;20043;-82
2024/01/24 08:39:46;;;;;;;25.75;4.65;;;9.70;99.90;;;;;;6275479;22;20073;-82
2024/01/24 08:42:11;;;;;;;48.70;7.47;;;9.70;99.90;;;;;;6277196;22;20011;-82
2024/01/24 08:44:38;;;;;;;27.92;4.97;;;9.70;99.90;;;;;;6277140;22;20388;-83
2024/01/24 08:47:03;;;;;;;53.42;7.40;;;9.70;99.90;;;;;;6275653;22;20016;-82
2024/01/24 08:49:29;;;;;;;41.92;7.05;;;9.70;99.90;;;;;;6276370;22;20102;-82
2024/01/24 08:51:58;;;;;;;37.58;6.72;;;9.70;99.90;;;;;;6274866;22;20022;-83
2024/01/24 08:54:24;;;;;;;27.63;4.78;;;9.70;99.90;;;;;;6276772;22;20437;-82
2024/01/24 08:56:50;;;;;;;40.47;6.88;;;9.80;99.90;;;;;;6275158;22;20031;-83
2024/01/24 08:59:15;;;;;;;34.35;6.18;;;9.90;99.90;;;;;;6276990;22;20023;-82
2024/01/24 09:01:41;;;;;;;42.85;6.00;;;9.90;99.90;;;;;;6259096;22;20063;-84
2024/01/24 09:04:07;;;;;;;37.80;6.05;;;10.10;99.90;;;;;;6246505;23;20040;-82
2024/01/24 09:06:32;;;;;;;39.22;5.97;;;10.20;99.90;;;;;;6247373;23;20019;-82
2024/01/24 09:08:58;;;;;;;37.55;5.85;;;10.20;99.90;;;;;;6246541;23;20066;-81
2024/01/24 09:11:24;;;;;;;36.30;5.55;;;10.30;99.90;;;;;;6246354;22;20079;-82
2024/01/24 09:13:50;;;;;;;40.45;7.07;;;10.40;99.90;;;;;;6220683;23;20085;-83
2024/01/24 09:16:16;;;;;;;32.47;6.75;;;10.50;99.90;;;;;;6221253;23;20046;-82
2024/01/24 09:18:42;;;;;;;32.38;6.80;;;10.60;99.90;;;;;;6248350;23;20414;-81
2024/01/24 09:21:09;;;;;;;35.80;5.88;;;10.70;99.90;;;;;;6221024;23;20074;-82
2024/01/24 09:23:34;;;;;;;30.10;5.55;;;10.80;99.90;;;;;;6248302;23;20012;-83
2024/01/24 09:26:02;;;;;;;37.95;6.10;;;10.60;99.90;;;;;;6247955;23;20133;-82
2024/01/24 09:28:29;;;;;;;36.58;6.05;;;10.60;99.90;;;;;;6248198;23;20023;-81
2024/01/24 09:30:56;;;;;;;32.05;6.22;;;10.50;99.90;;;;;;6220981;23;20013;-82
2024/01/24 09:33:23;;;;;;;31.13;5.55;;;10.40;99.90;;;;;;6247607;23;20012;-82
2024/01/24 09:35:49;;;;;;;31.08;5.60;;;10.50;99.90;;;;;;6248123;23;20083;-82
2024/01/24 09:38:14;;;;;;;33.00;6.00;;;10.40;99.90;;;;;;6248303;23;20101;-83
2024/01/24 09:40:41;;;;;;;38.40;6.40;;;10.50;99.90;;;;;;6248006;22;20433;-80
2024/01/24 09:43:09;;;;;;;26.55;5.18;;;10.50;99.90;;;;;;6248119;23;20079;-82
2024/01/24 09:45:39;;;;;;;30.95;5.38;;;10.60;99.90;;;;;;6248432;23;20333;-81
2024/01/24 09:48:08;;;;;;;38.83;5.53;;;10.80;99.90;;;;;;6247824;23;20005;-82
2024/01/24 09:50:34;;;;;;;32.88;5.55;;;11.10;99.90;;;;;;6247581;22;20016;-81
2024/01/24 09:53:03;;;;;;;34.28;5.75;;;11.20;99.90;;;;;;6247662;23;20004;-81
2024/01/24 09:55:31;;;;;;;33.72;6.25;;;11.20;99.90;;;;;;6220725;23;20008;-82
2024/01/24 09:57:57;;;;;;;27.25;4.80;;;11.30;99.90;;;;;;6248304;23;20047;-81
2024/01/24 10:00:23;;;;;;;37.55;5.88;;;11.30;99.90;;;;;;6247865;22;20027;-85
2024/01/24 10:02:49;;;;;;;24.63;5.55;;;11.40;99.90;;;;;;6195865;23;20016;-81
2024/01/24 10:05:20;;;;;;;37.13;6.35;;;11.40;99.90;;;;;;6195669;23;20055;-83
2024/01/24 10:07:46;;;;;;;40.88;8.30;;;11.40;99.90;;;;;;6247721;23;20055;-81
2024/01/24 10:10:13;;;;;;;28.20;4.35;;;11.30;99.90;;;;;;6220619;22;20433;-82
2024/01/24 10:12:42;;;;;;;35.85;6.13;;;11.30;99.90;;;;;;6196142;23;20087;-81
2024/01/24 10:15:09;;;;;;;24.77;5.18;;;11.40;99.90;;;;;;6220744;23;20016;-83
2024/01/24 10:17:35;;;;;;;31.25;5.90;;;11.40;99.90;;;;;;6221262;23;20329;-80
2024/01/24 10:20:01;;;;;;;40.80;5.45;;;11.40;99.90;;;;;;6247857;23;20016;-81
2024/01/24 10:22:27;;;;;;;27.85;5.05;;;11.40;99.90;;;;;;6248042;22;20062;-80
2024/01/24 10:24:54;;;;;;;32.75;4.75;;;11.30;99.90;;;;;;6247674;23;20016;-81
2024/01/24 10:27:20;;;;;;;32.75;5.55;;;11.40;99.90;;;;;;6247877;23;20012;-82
2024/01/24 10:29:45;;;;;;;33.45;5.70;;;11.40;99.90;;;;;;6247551;23;20091;-82
2024/01/24 10:32:12;;;;;;;36.67;5.10;;;11.40;99.90;;;;;;6220637;23;20019;-83
2024/01/24 10:34:38;;;;;;;31.83;5.05;;;11.40;99.90;;;;;;6247636;23;20087;-82
2024/01/24 10:37:07;;;;;;;25.45;4.57;;;11.40;99.90;;;;;;6247279;23;20016;-81
2024/01/24 10:39:36;;;;;;;28.85;5.95;;;11.30;99.90;;;;;;6220603;23;20026;-80
2024/01/24 10:42:06;;;;;;;30.85;6.13;;;11.30;99.90;;;;;;6248458;22;20367;-82
2024/01/24 10:44:35;;;;;;;27.42;5.15;;;11.30;99.90;;;;;;6250021;23;20503;-78
2024/01/24 10:47:04;;;;;;;21.77;4.68;;;11.30;99.90;;;;;;6259635;23;20504;-80
2024/01/24 10:49:31;;;;;;;20.63;4.20;;;11.20;99.90;;;;;;6268927;23;20016;-82
2024/01/24 10:51:57;;;;;;;27.23;4.47;;;11.20;99.90;;;;;;6260876;22;20008;-82
2024/01/24 10:54:23;;;;;;;27.98;5.97;;;11.20;99.90;;;;;;6223047;23;20043;-80
2024/01/24 10:56:50;;;;;;;23.25;5.50;;;11.20;99.90;;;;;;6249476;23;20500;-79
2024/01/24 10:59:22;;;;;;;29.88;5.53;;;11.20;99.90;;;;;;6221353;23;20020;-80
2024/01/24 11:01:48;;;;;;;35.72;5.78;;;11.20;99.90;;;;;;6253667;22;20015;-82
2024/01/24 11:04:19;;;;;;;25.27;4.30;;;11.20;99.90;;;;;;6276783;22;20345;-81
2024/01/24 11:06:58;;;;;;;30.13;4.18;;;11.20;99.90;;;;;;6278546;22;20035;-82
2024/01/24 11:09:32;;;;;;;31.90;5.28;;;11.20;99.90;;;;;;6277517;22;20016;-82
2024/01/24 11:11:58;;;;;;;26.52;4.70;;;11.20;99.90;;;;;;6276529;22;20051;-81
2024/01/24 11:14:34;;;;;;;28.50;4.38;;;11.30;99.90;;;;;;6276208;22;20012;-81
2024/01/24 11:17:02;;;;;;;22.75;4.30;;;11.30;99.90;;;;;;6276605;22;20012;-82
2024/01/24 11:19:29;;;;;;;23.80;4.63;;;11.30;99.90;;;;;;6276259;22;20073;-81
2024/01/24 11:22:03;;;;;;;24.67;5.03;;;11.30;99.90;;;;;;6278002;22;20073;-80
2024/01/24 11:24:41;;;;;;;26.80;4.60;;;11.20;99.90;;;;;;6278142;22;20437;-82
2024/01/24 11:27:25;;;;;;;26.73;4.80;;;11.20;99.90;;;;;;6277808;22;20062;-81
2024/01/24 11:29:52;;;;;;;30.75;4.75;;;11.20;99.90;;;;;;6276590;22;20043;-81
2024/01/24 11:32:55;;;;;;;29.75;5.00;;;11.40;99.90;;;;;;6279224;22;20003;-83
2024/01/24 11:35:31;;;;;;;20.25;3.85;;;11.50;99.90;;;;;;6278093;22;20012;-83
2024/01/24 11:38:05;;;;;;;20.30;4.47;;;11.60;99.90;;;;;;6276378;22;20091;-80
2024/01/24 11:40:36;;;;;;;24.07;4.83;;;11.60;99.90;;;;;;6275815;22;20047;-81
2024/01/24 11:43:03;;;;;;;22.17;5.30;;;11.50;99.90;;;;;;6276508;22;20353;-82
2024/01/24 11:45:30;;;;;;;27.65;5.63;;;11.30;99.90;;;;;;6275801;22;20022;-82
2024/01/24 11:47:57;;;;;;;28.73;4.75;;;11.30;99.90;;;;;;6276081;22;20022;-82
2024/01/24 11:50:22;;;;;;;27.13;4.22;;;11.20;99.90;;;;;;6276040;22;20070;-86
2024/01/24 11:52:48;;;;;;;31.70;4.32;;;11.30;99.90;;;;;;6276438;22;20385;-81
2024/01/24 11:55:14;;;;;;;23.92;4.55;;;11.30;99.90;;;;;;6278554;22;20087;-82
2024/01/24 11:57:40;;;;;;;28.73;5.00;;;11.30;99.90;;;;;;6276039;22;20402;-81
2024/01/24 12:00:09;;;;;;;26.95;4.78;;;11.50;99.90;;;;;;6275816;22;20267;-81
2024/01/24 12:02:35;;;;;;;19.13;4.18;;;11.50;99.90;;;;;;6249944;22;20007;-81
2024/01/24 12:05:00;;;;;;;25.27;4.63;;;11.40;99.90;;;;;;6275821;22;20061;-82
2024/01/24 12:07:26;;;;;;;28.52;4.72;;;11.40;99.90;;;;;;6275658;22;20020;-83
2024/01/24 12:09:53;;;;;;;22.13;4.53;;;11.40;99.90;;;;;;6275757;22;20054;-83
2024/01/24 12:12:19;;;;;;;28.50;5.68;;;11.30;99.90;;;;;;6277356;22;20008;-84
2024/01/24 12:14:45;;;;;;;25.90;5.10;;;11.30;99.90;;;;;;6277105;22;20012;-82
2024/01/24 12:17:11;;;;;;;30.92;6.43;;;11.40;99.90;;;;;;6278273;22;20015;-82
2024/01/24 12:19:41;;;;;;;31.75;5.10;;;11.40;99.90;;;;;;6276946;22;20138;-81
2024/01/24 12:22:09;;;;;;;20.30;4.75;;;11.40;99.90;;;;;;6277293;22;20011;-81
2024/01/24 12:24:42;;;;;;;24.08;3.63;;;11.50;99.90;;;;;;6275725;22;20114;-80
2024/01/24 12:27:08;;;;;;;35.30;7.75;;;11.40;99.90;;;;;;6277244;22;20008;-80
2024/01/24 12:29:34;;;;;;;17.65;4.07;;;11.40;99.90;;;;;;6277926;22;20491;-81
2024/01/24 12:32:01;;;;;;;27.33;6.20;;;11.50;99.90;;;;;;6277692;22;20007;-82
2024/01/24 12:34:30;;;;;;;34.17;6.07;;;11.50;99.90;;;;;;6278198;22;20023;-81
2024/01/24 12:37:00;;;;;;;29.13;5.25;;;11.40;99.90;;;;;;6277215;22;20016;-82
2024/01/24 12:39:31;;;;;;;31.63;5.28;;;11.40;99.90;;;;;;6277772;22;20008;-84
2024/01/24 12:41:57;;;;;;;23.67;4.25;;;11.40;99.90;;;;;;6277588;22;20329;-82
2024/01/24 12:44:23;;;;;;;23.75;4.72;;;11.30;99.90;;;;;;6275783;22;20055;-81
2024/01/24 12:46:57;;;;;;;23.63;4.72;;;11.20;99.90;;;;;;6275685;22;20018;-81
2024/01/24 12:49:26;;;;;;;17.63;4.05;;;11.10;99.90;;;;;;6275725;22;20020;-80
2024/01/24 12:51:53;;;;;;;24.55;5.63;;;11.00;99.90;;;;;;6277695;22;20075;-81
2024/01/24 12:54:19;;;;;;;30.33;4.47;;;11.00;99.90;;;;;;6277918;22;20039;-81
2024/01/24 12:56:47;;;;;;;22.70;4.53;;;11.10;99.90;;;;;;6278012;22;20122;-81
2024/01/24 12:59:12;;;;;;;22.83;3.67;;;11.00;99.90;;;;;;6277465;22;20401;-79
2024/01/24 13:01:38;;;;;;;20.33;4.03;;;11.10;99.90;;;;;;6260936;22;20009;-81
2024/01/24 13:04:04;;;;;;;31.27;6.38;;;11.00;99.90;;;;;;6246163;23;20008;-81
2024/01/24 13:06:30;;;;;;;36.63;6.07;;;11.00;99.90;;;;;;6246817;23;20014;-80
2024/01/24 13:08:56;;;;;;;24.05;4.90;;;10.90;99.90;;;;;;6246542;23;20012;-82
2024/01/24 13:11:21;;;;;;;27.85;4.90;;;10.90;99.90;;;;;;6246047;22;20051;-80
2024/01/24 13:13:47;;;;;;;23.08;5.65;;;10.80;99.90;;;;;;6219655;23;20013;-83
2024/01/24 13:16:13;;;;;;;31.75;5.60;;;10.70;99.90;;;;;;6246380;23;20031;-82
2024/01/24 13:18:39;;;;;;;28.50;5.07;;;10.70;99.90;;;;;;6246919;23;20008;-82
2024/01/24 13:21:05;;;;;;;24.05;4.32;;;10.60;99.90;;;;;;6246919;22;20016;-82
2024/01/24 13:23:31;;;;;;;29.15;5.50;;;10.60;99.90;;;;;;6247439;23;20019;-81
2024/01/24 13:25:57;;;;;;;32.20;5.82;;;10.60;99.90;;;;;;6247642;23;20016;-84
2024/01/24 13:28:23;;;;;;;19.80;4.43;;;10.50;99.90;;;;;;6247575;23;20019;-80
2024/01/24 13:30:48;;;;;;;25.55;4.65;;;10.50;99.90;;;;;;6247108;22;20016;-83
2024/01/24 13:33:14;;;;;;;34.60;5.03;;;10.50;99.90;;;;;;6219782;23;20429;-84
2024/01/24 13:35:40;;;;;;;29.42;4.78;;;10.50;99.90;;;;;;6220030;23;20019;-83
2024/01/24 13:38:06;;;;;;;24.23;5.22;;;10.50;99.90;;;;;;6246810;23;20083;-80
2024/01/24 13:40:31;;;;;;;21.75;4.25;;;10.50;99.90;;;;;;6194432;22;20012;-84
2024/01/24 13:42:58;;;;;;;24.65;4.95;;;10.50;99.90;;;;;;6219563;23;20503;-81
2024/01/24 13:45:23;;;;;;;23.27;4.18;;;10.50;99.90;;;;;;6219691;23;20020;-81
2024/01/24 13:47:49;;;;;;;29.33;5.10;;;10.40;99.90;;;;;;6246793;23;20062;-82
2024/01/24 13:50:14;;;;;;;22.85;4.15;;;10.40;99.90;;;;;;6247314;22;20016;-81
2024/01/24 13:52:40;;;;;;;22.50;3.75;;;10.40;99.90;;;;;;6219423;23;20012;-81
2024/01/24 13:55:07;;;;;;;26.80;4.97;;;10.40;99.90;;;;;;6246108;23;20311;-82
2024/01/24 13:57:33;;;;;;;32.65;6.40;;;10.30;99.90;;;;;;6246809;23;20087;-82
2024/01/24 13:59:58;;;;;;;35.38;7.00;;;10.30;99.90;;;;;;6220661;23;20061;-82
2024/01/24 14:02:24;;;;;;;29.55;5.45;;;10.20;99.90;;;;;;6248542;22;20012;-82
2024/01/24 14:04:50;;;;;;;26.17;5.38;;;10.20;99.90;;;;;;6249446;23;20019;-81
2024/01/24 14:07:16;;;;;;;24.00;5.30;;;10.20;99.90;;;;;;6221338;23;20018;-81
2024/01/24 14:09:41;;;;;;;28.83;5.03;;;10.10;99.90;;;;;;6247710;23;20012;-80
2024/01/24 14:12:08;;;;;;;39.58;5.00;;;10.10;99.90;;;;;;6248289;22;20012;-80
2024/01/24 14:14:34;;;;;;;30.83;5.88;;;10.10;99.90;;;;;;6196354;23;20016;-81
2024/01/24 14:16:59;;;;;;;31.52;5.55;;;10.00;99.90;;;;;;6221098;23;20023;-81
2024/01/24 14:19:26;;;;;;;28.15;3.95;;;10.10;99.90;;;;;;6248105;23;20018;-79
2024/01/24 14:21:52;;;;;;;35.13;6.13;;;10.10;99.90;;;;;;6248024;22;20043;-80
2024/01/24 14:24:18;;;;;;;28.20;4.68;;;10.00;99.90;;;;;;6248324;23;20442;-84
2024/01/24 14:26:44;;;;;;;38.08;5.90;;;10.00;99.90;;;;;;6249598;23;20015;-81
2024/01/24 14:29:09;;;;;;;28.60;5.40;;;10.00;99.90;;;;;;6248963;23;20402;-80
2024/01/24 14:31:35;;;;;;;30.60;5.38;;;9.90;99.90;;;;;;6248858;22;20009;-82
2024/01/24 14:34:00;;;;;;;30.05;5.10;;;9.80;99.90;;;;;;6248903;23;20014;-81
2024/01/24 14:36:34;;;;;;;23.83;5.05;;;9.80;99.90;;;;;;6222111;23;20070;-81
2024/01/24 14:39:00;;;;;;;26.92;4.78;;;9.80;99.90;;;;;;6221640;23;20050;-82
2024/01/24 14:41:27;;;;;;;25.20;5.50;;;9.80;99.90;;;;;;6248771;22;20017;-83
2024/01/24 14:43:53;;;;;;;32.38;4.60;;;9.80;99.90;;;;;;6247970;23;20038;-81
2024/01/24 14:46:21;;;;;;;34.28;6.43;;;9.70;99.90;;;;;;6221875;23;20083;-81
2024/01/24 14:48:48;;;;;;;24.60;5.00;;;9.70;99.90;;;;;;6248992;23;20008;-83
2024/01/24 14:51:14;;;;;;;34.00;5.28;;;9.70;99.90;;;;;;6248170;22;20066;-82
2024/01/24 14:53:39;;;;;;;27.23;4.85;;;9.70;99.90;;;;;;6248683;23;20008;-82
2024/01/24 14:56:06;;;;;;;30.58;4.88;;;9.70;99.90;;;;;;6249154;23;20008;-83
2024/01/24 14:58:32;;;;;;;25.10;5.40;;;9.70;99.90;;;;;;6221508;23;20020;-82
2024/01/24 15:00:57;;;;;;;25.13;3.78;;;9.60;99.90;;;;;;6247953;22;20031;-84
2024/01/24 15:03:24;;;;;;;37.42;5.82;;;9.60;99.90;;;;;;6249640;23;20375;-82
2024/01/24 15:05:49;;;;;;;28.92;5.38;;;9.60;99.90;;;;;;6248239;23;20434;-82
2024/01/24 15:08:15;;;;;;;24.23;4.82;;;9.60;99.90;;;;;;6248290;23;20011;-82
2024/01/24 15:10:41;;;;;;;28.63;4.38;;;9.50;99.90;;;;;;6247545;22;20062;-81
2024/01/24 15:13:07;;;;;;;30.58;4.53;;;9.60;99.90;;;;;;6195674;23;20062;-82
2024/01/24 15:15:33;;;;;;;34.58;4.65;;;9.50;99.90;;;;;;6248315;23;20087;-81
2024/01/24 15:17:59;;;;;;;37.15;5.55;;;9.50;99.90;;;;;;6221401;23;20016;-82
2024/01/24 15:20:25;;;;;;;30.35;4.85;;;9.50;99.90;;;;;;6248213;22;20329;-81
2024/01/24 15:22:52;;;;;;;38.28;5.93;;;9.50;99.90;;;;;;6221231;23;20016;-81
2024/01/24 15:25:18;;;;;;;28.85;4.40;;;9.50;99.90;;;;;;6248654;23;20008;-81
2024/01/24 15:27:44;;;;;;;36.03;5.57;;;9.50;99.90;;;;;;6248140;23;20014;-83
2024/01/24 15:30:11;;;;;;;28.40;4.60;;;9.40;99.90;;;;;;6247887;23;20083;-81
2024/01/24 15:32:37;;;;;;;27.00;4.18;;;9.40;99.90;;;;;;6248430;22;20004;-82
2024/01/24 15:35:03;;;;;;;25.90;4.60;;;9.40;99.90;;;;;;6221119;23;20457;-82
2024/01/24 15:37:28;;;;;;;24.42;4.22;;;9.30;99.90;;;;;;6221139;23;20023;-83
2024/01/24 15:39:55;;;;;;;24.38;4.25;;;9.30;99.90;;;;;;6197304;23;20016;-83
2024/01/24 15:42:22;;;;;;;31.65;4.95;;;9.20;99.90;;;;;;6248516;22;20295;-83
2024/01/24 15:44:48;;;;;;;38.88;5.50;;;9.10;99.90;;;;;;6221482;23;20020;-82
2024/01/24 15:47:14;;;;;;;24.55;3.75;;;9.10;99.90;;;;;;6248533;23;20086;-82
2024/01/24 15:49:43;;;;;;;37.65;6.03;;;9.00;99.90;;;;;;6221651;23;20016;-83
2024/01/24 15:52:09;;;;;;;30.23;5.93;;;9.10;99.90;;;;;;6221307;23;20019;-81
2024/01/24 15:54:37;;;;;;;34.75;5.38;;;9.00;99.90;;;;;;6248630;23;20056;-81
2024/01/24 15:57:04;;;;;;;39.13;5.68;;;8.90;99.90;;;;;;6221475;23;20450;-82
2024/01/24 15:59:29;;;;;;;31.02;4.70;;;8.90;99.90;;;;;;6248269;23;20008;-81
2024/01/24 16:01:55;;;;;;;29.80;4.15;;;8.90;99.90;;;;;;6247778;22;20066;-82
2024/01/24 16:04:21;;;;;;;37.20;6.20;;;8.80;99.90;;;;;;6248787;23;20012;-82
2024/01/24 16:06:47;;;;;;;28.08;4.28;;;8.80;99.90;;;;;;6248425;23;20012;-82
2024/01/24 16:09:13;;;;;;;32.47;4.40;;;8.80;99.90;;;;;;6246820;23;20019;-82
2024/01/24 16:11:39;;;;;;;37.03;5.18;;;8.70;99.90;;;;;;6247689;22;20008;-81
2024/01/24 16:14:04;;;;;;;33.30;4.90;;;8.70;99.90;;;;;;6248256;23;20015;-83
2024/01/24 16:16:30;;;;;;;29.40;5.35;;;8.70;99.90;;;;;;6246990;23;20008;-79
2024/01/24 16:18:56;;;;;;;26.45;5.30;;;8.70;99.90;;;;;;6248132;23;20016;-81
2024/01/24 16:21:23;;;;;;;35.67;5.22;;;8.60;99.90;;;;;;6249251;22;20091;-82
2024/01/24 16:23:48;;;;;;;40.83;7.65;;;8.60;99.90;;;;;;6222273;23;20016;-80
2024/01/24 16:26:14;;;;;;;37.65;8.07;;;8.60;99.90;;;;;;6237137;23;20063;-81
2024/01/24 16:28:43;;;;;;;36.05;5.82;;;8.60;99.90;;;;;;6244998;23;20484;-82
2024/01/24 16:31:09;;;;;;;29.35;6.22;;;8.60;99.90;;;;;;6256665;22;20517;-82
2024/01/24 16:33:35;;;;;;;47.33;6.50;;;8.60;99.90;;;;;;6249063;23;20087;-81
2024/01/24 16:36:01;;;;;;;28.95;4.93;;;8.60;99.90;;;;;;6220563;23;20020;-82